createdAt,value
2023-05-02T00:01:21.822Z,11.98
2023-05-02T00:03:49.371Z,11.97
2023-05-02T00:06:18.110Z,11.96
2023-05-02T00:08:45.481Z,11.94
2023-05-02T00:11:12.806Z,11.94
2023-05-02T00:13:40.063Z,11.96
2023-05-02T00:16:07.460Z,11.95
2023-05-02T00:18:35.417Z,12.00
2023-05-02T00:21:02.759Z,12.00
2023-05-02T00:23:31.434Z,12.01
2023-05-02T00:25:58.775Z,12.01
2023-05-02T00:28:26.081Z,12.02
2023-05-02T00:30:53.506Z,12.00
2023-05-02T00:33:20.838Z,12.01
2023-05-02T00:35:48.165Z,12.01
2023-05-02T00:38:15.391Z,11.97
2023-05-02T00:40:44.948Z,11.97
2023-05-02T00:43:12.316Z,11.93
2023-05-02T00:45:39.972Z,11.94
2023-05-02T00:48:07.559Z,11.84
2023-05-02T00:50:38.079Z,11.84
2023-05-02T00:53:05.436Z,11.79
2023-05-02T00:55:33.518Z,11.75
2023-05-02T00:58:05.135Z,11.77
2023-05-02T01:00:46.609Z,11.82
2023-05-02T01:03:25.624Z,11.91
2023-05-02T01:06:05.287Z,11.87
2023-05-02T01:08:38.996Z,11.88
2023-05-02T01:11:14.954Z,11.90
2023-05-02T01:13:46.479Z,11.88
2023-05-02T01:16:15.980Z,11.90
2023-05-02T01:18:44.856Z,11.87
2023-05-02T01:21:12.469Z,11.78
2023-05-02T01:23:51.382Z,11.81
2023-05-02T01:26:27.497Z,11.73
2023-05-02T01:29:01.594Z,11.69
2023-05-02T01:31:33.066Z,11.72
2023-05-02T01:34:02.323Z,11.58
2023-05-02T01:36:33.395Z,11.50
2023-05-02T01:39:02.057Z,11.47
2023-05-02T01:41:32.261Z,11.37
2023-05-02T01:44:02.565Z,11.32
2023-05-02T01:46:33.655Z,11.11
2023-05-02T01:49:03.646Z,11.02
2023-05-02T01:51:33.696Z,10.96
2023-05-02T01:54:04.184Z,10.88
2023-05-02T01:56:35.588Z,10.87
2023-05-02T01:59:06.582Z,10.83
2023-05-02T02:01:36.371Z,10.84
2023-05-02T02:04:05.970Z,10.80
2023-05-02T02:06:33.469Z,10.69
2023-05-02T02:09:01.592Z,10.58
2023-05-02T02:11:34.915Z,10.56
2023-05-02T02:14:09.406Z,10.62
2023-05-02T02:16:41.600Z,10.62
2023-05-02T02:19:13.160Z,10.60
2023-05-02T02:21:42.335Z,10.57
2023-05-02T02:24:11.355Z,10.55
2023-05-02T02:26:39.113Z,10.53
2023-05-02T02:29:08.694Z,10.42
2023-05-02T02:31:36.599Z,10.36
2023-05-02T02:34:03.967Z,10.33
2023-05-02T02:36:39.828Z,10.02
2023-05-02T02:39:16.973Z,10.00
2023-05-02T02:41:52.868Z,9.80
2023-05-02T02:44:35.071Z,9.70
2023-05-02T02:47:09.553Z,9.65
2023-05-02T02:49:47.504Z,9.67
2023-05-02T02:52:23.746Z,9.65
2023-05-02T02:54:56.707Z,9.63
2023-05-02T02:57:29.374Z,9.55
2023-05-02T03:00:08.569Z,9.45
2023-05-02T03:02:37.428Z,9.42
2023-05-02T03:05:07.240Z,9.42
2023-05-02T03:07:34.584Z,9.45
2023-05-02T03:10:04.304Z,9.46
2023-05-02T03:12:33.945Z,9.39
2023-05-02T03:15:19.918Z,9.37
2023-05-02T03:17:47.340Z,9.39
2023-05-02T03:20:14.642Z,9.34
2023-05-02T03:22:42.380Z,9.35
2023-05-02T03:25:10.042Z,9.38
2023-05-02T03:27:42.107Z,9.34
2023-05-02T03:30:13.147Z,9.17
2023-05-02T03:32:40.594Z,9.23
2023-05-02T03:35:08.536Z,9.12
2023-05-02T03:37:40.428Z,9.12
2023-05-02T03:40:08.921Z,9.03
2023-05-02T03:42:36.230Z,9.05
2023-05-02T03:45:03.991Z,8.94
2023-05-02T03:47:32.678Z,9.07
2023-05-02T03:50:00.567Z,9.09
2023-05-02T03:52:28.780Z,8.92
2023-05-02T03:54:56.104Z,9.00
2023-05-02T03:57:24.105Z,8.97
2023-05-02T03:59:51.454Z,8.81
2023-05-02T04:02:26.943Z,8.95
2023-05-02T04:04:56.664Z,8.87
2023-05-02T04:07:24.548Z,8.83
2023-05-02T04:09:59.149Z,8.85
2023-05-02T04:12:27.188Z,8.85
2023-05-02T04:14:54.716Z,8.80
2023-05-02T04:17:26.508Z,8.72
2023-05-02T04:19:53.963Z,8.65
2023-05-02T04:22:26.543Z,8.71
2023-05-02T04:24:58.343Z,8.73
2023-05-02T04:27:26.917Z,8.70
2023-05-02T04:29:54.492Z,8.71
2023-05-02T04:32:22.857Z,8.69
2023-05-02T04:34:50.533Z,8.75
2023-05-02T04:37:18.564Z,8.72
2023-05-02T04:39:48.616Z,8.74
2023-05-02T04:42:19.885Z,8.76
2023-05-02T04:45:12.838Z,8.67
2023-05-02T04:47:40.382Z,8.87
2023-05-02T04:50:09.181Z,8.76
2023-05-02T04:52:36.527Z,8.74
2023-05-02T04:55:06.339Z,8.76
2023-05-02T04:57:33.994Z,8.89
2023-05-02T05:00:03.154Z,8.70
2023-05-02T05:02:30.879Z,8.72
2023-05-02T05:05:00.760Z,8.62
2023-05-02T05:07:28.145Z,8.72
2023-05-02T05:09:55.916Z,8.65
2023-05-02T05:12:27.332Z,8.64
2023-05-02T05:14:54.593Z,8.67
2023-05-02T05:17:23.924Z,8.74
2023-05-02T05:19:51.245Z,8.72
2023-05-02T05:22:18.785Z,8.60
2023-05-02T05:24:51.808Z,8.48
2023-05-02T05:27:19.940Z,8.47
2023-05-02T05:29:48.923Z,8.47
2023-05-02T05:32:16.800Z,8.50
2023-05-02T05:34:44.871Z,8.46
2023-05-02T05:37:13.037Z,8.44
2023-05-02T05:39:40.926Z,8.50
2023-05-02T05:42:08.350Z,8.52
2023-05-02T05:44:35.815Z,8.46
2023-05-02T05:47:05.619Z,8.46
2023-05-02T05:49:33.023Z,8.46
2023-05-02T05:52:00.818Z,8.33
2023-05-02T05:54:28.204Z,8.22
2023-05-02T05:56:55.519Z,8.14
2023-05-02T05:59:22.784Z,8.11
2023-05-02T06:01:50.059Z,8.14
2023-05-02T06:04:21.720Z,8.22
2023-05-02T06:06:51.179Z,8.22
2023-05-02T06:09:18.550Z,8.25
2023-05-02T06:11:45.909Z,8.35
2023-05-02T06:14:13.383Z,8.49
2023-05-02T06:16:40.855Z,8.54
2023-05-02T06:19:09.033Z,8.21
2023-05-02T06:21:37.872Z,8.19
2023-05-02T06:24:05.726Z,8.33
2023-05-02T06:26:33.203Z,8.37
2023-05-02T06:29:00.710Z,8.32
2023-05-02T06:31:28.150Z,8.30
2023-05-02T06:33:55.438Z,8.32
2023-05-02T06:36:22.674Z,8.37
2023-05-02T06:38:51.289Z,8.50
2023-05-02T06:41:18.633Z,8.54
2023-05-02T06:43:46.011Z,8.43
2023-05-02T06:46:13.498Z,8.52
2023-05-02T06:48:41.003Z,8.76
2023-05-02T06:51:08.636Z,8.63
2023-05-02T06:53:36.418Z,8.57
2023-05-02T06:56:05.958Z,8.70
2023-05-02T06:58:33.230Z,8.74
2023-05-02T07:01:00.586Z,8.88
2023-05-02T07:03:28.098Z,8.91
2023-05-02T07:05:55.469Z,9.09
2023-05-02T07:08:22.801Z,8.78
2023-05-02T07:10:50.473Z,8.70
2023-05-02T07:13:19.168Z,8.85
2023-05-02T07:15:46.492Z,8.69
2023-05-02T07:18:13.720Z,8.83
2023-05-02T07:20:41.086Z,8.85
2023-05-02T07:23:08.714Z,8.78
2023-05-02T07:25:36.035Z,8.95
2023-05-02T07:28:03.600Z,8.95
2023-05-02T07:30:32.443Z,9.26
2023-05-02T07:32:59.941Z,9.24
2023-05-02T07:35:27.737Z,9.27
2023-05-02T07:37:55.419Z,9.32
2023-05-02T07:40:23.014Z,9.37
2023-05-02T07:42:50.426Z,9.47
2023-05-02T07:45:18.148Z,9.38
2023-05-02T07:47:47.048Z,9.31
2023-05-02T07:50:14.536Z,9.46
2023-05-02T07:52:41.814Z,9.48
2023-05-02T07:55:09.894Z,9.56
2023-05-02T07:57:37.296Z,9.61
2023-05-02T08:00:06.711Z,9.96
2023-05-02T08:02:41.736Z,9.71
2023-05-02T08:05:10.757Z,9.79
2023-05-02T08:07:38.150Z,9.61
2023-05-02T08:10:06.727Z,9.30
2023-05-02T08:12:38.188Z,9.61
2023-05-02T08:15:06.975Z,9.52
2023-05-02T08:17:34.397Z,9.46
2023-05-02T08:20:02.351Z,9.88
2023-05-02T08:22:31.401Z,10.11
2023-05-02T08:24:59.157Z,10.02
2023-05-02T08:27:26.791Z,9.81
2023-05-02T08:29:54.161Z,9.43
2023-05-02T08:32:21.620Z,9.28
2023-05-02T08:34:48.945Z,9.42
2023-05-02T08:37:16.181Z,9.40
2023-05-02T08:39:44.862Z,9.31
2023-05-02T08:42:12.199Z,9.38
2023-05-02T08:44:39.653Z,9.76
2023-05-02T08:47:10.894Z,10.25
2023-05-02T08:49:39.145Z,10.66
2023-05-02T08:52:09.043Z,10.79
2023-05-02T08:54:38.307Z,10.64
2023-05-02T08:57:07.680Z,10.12
2023-05-02T08:59:34.997Z,10.11
2023-05-02T09:02:12.670Z,9.84
2023-05-02T09:04:42.753Z,9.80
2023-05-02T09:07:10.912Z,9.88
2023-05-02T09:09:38.335Z,9.97
2023-05-02T09:12:07.064Z,10.13
2023-05-02T09:14:34.853Z,10.90
2023-05-02T09:17:02.299Z,10.69
2023-05-02T09:19:29.719Z,11.14
2023-05-02T09:22:00.793Z,10.78
2023-05-02T09:24:28.251Z,11.75
2023-05-02T09:27:00.004Z,11.49
2023-05-02T09:29:29.782Z,11.48
2023-05-02T09:31:57.117Z,11.15
2023-05-02T09:34:24.517Z,11.38
2023-05-02T09:36:52.528Z,11.52
2023-05-02T09:39:26.265Z,11.34
2023-05-02T09:41:54.432Z,11.20
2023-05-02T09:44:23.669Z,12.34
2023-05-02T09:46:55.050Z,14.06
2023-05-02T09:49:39.830Z,13.75
2023-05-02T09:52:11.211Z,12.81
2023-05-02T09:54:38.693Z,11.66
2023-05-02T09:57:06.006Z,10.94
2023-05-02T09:59:33.568Z,11.42
2023-05-02T10:02:03.600Z,11.71
2023-05-02T10:04:32.609Z,11.95
2023-05-02T10:07:01.739Z,12.87
2023-05-02T10:09:29.991Z,12.75
2023-05-02T10:11:57.426Z,11.88
2023-05-02T10:14:28.619Z,11.46
2023-05-02T10:17:04.897Z,10.77
2023-05-02T10:19:38.698Z,11.09
2023-05-02T10:22:07.181Z,12.51
2023-05-02T10:24:34.961Z,13.46
2023-05-02T10:27:04.303Z,14.14
2023-05-02T10:29:32.108Z,12.92
2023-05-02T10:32:03.449Z,12.04
2023-05-02T10:34:32.706Z,11.55
2023-05-02T10:37:00.011Z,11.16
2023-05-02T10:39:32.092Z,10.37
2023-05-02T10:42:00.781Z,10.54
2023-05-02T10:44:35.068Z,10.68
2023-05-02T10:47:18.806Z,10.32
2023-05-02T10:49:52.866Z,10.61
2023-05-02T10:52:28.088Z,11.11
2023-05-02T10:55:17.094Z,10.94
2023-05-02T10:58:20.241Z,11.36
2023-05-02T11:00:47.913Z,10.85
2023-05-02T11:03:55.469Z,11.90
2023-05-02T11:06:23.216Z,11.70
2023-05-02T11:08:50.468Z,11.96
2023-05-02T11:11:40.245Z,12.48
2023-05-02T11:14:08.047Z,12.29
2023-05-02T11:17:06.837Z,11.89
2023-05-02T11:20:07.450Z,11.66
2023-05-02T11:22:36.109Z,11.52
2023-05-02T11:25:03.938Z,11.19
2023-05-02T11:27:37.664Z,10.81
2023-05-02T11:30:07.728Z,10.85
2023-05-02T11:33:18.020Z,10.77
2023-05-02T11:35:47.551Z,10.66
2023-05-02T11:38:21.934Z,10.37
2023-05-02T11:40:57.227Z,10.31
2023-05-02T11:43:26.681Z,10.95
2023-05-02T11:45:55.676Z,11.44
2023-05-02T11:48:23.793Z,11.55
2023-05-02T11:50:52.624Z,11.85
2023-05-02T11:53:23.511Z,12.53
2023-05-02T11:55:53.437Z,12.10
2023-05-02T11:58:22.868Z,12.44
2023-05-02T12:00:51.394Z,12.72
2023-05-02T12:03:23.897Z,12.92
2023-05-02T12:05:51.625Z,13.15
2023-05-02T12:08:22.254Z,13.39
2023-05-02T12:10:50.333Z,13.40
2023-05-02T12:13:17.711Z,13.89
2023-05-02T12:15:45.357Z,13.93
2023-05-02T12:18:14.099Z,13.13
2023-05-02T12:20:42.361Z,13.63
2023-05-02T12:23:10.193Z,14.67
2023-05-02T12:25:39.917Z,13.74
2023-05-02T12:28:07.447Z,13.20
2023-05-02T12:30:36.087Z,12.60
2023-05-02T12:33:04.115Z,13.04
2023-05-02T12:35:32.562Z,12.94
2023-05-02T12:38:11.980Z,12.88
2023-05-02T12:40:47.149Z,12.24
2023-05-02T12:43:14.529Z,11.91
2023-05-02T12:45:41.700Z,11.47
2023-05-02T12:48:24.017Z,11.57
2023-05-02T12:50:52.285Z,11.60
2023-05-02T12:53:41.199Z,11.42
2023-05-02T12:56:10.523Z,12.38
2023-05-02T12:58:42.591Z,12.02
2023-05-02T13:01:10.650Z,12.00
2023-05-02T13:03:38.208Z,12.10
2023-05-02T13:06:06.307Z,12.36
2023-05-02T13:08:34.492Z,11.53
2023-05-02T13:11:02.066Z,11.20
2023-05-02T13:13:33.408Z,11.49
2023-05-02T13:16:00.835Z,11.64
2023-05-02T13:18:28.255Z,11.13
2023-05-02T13:20:55.663Z,11.49
2023-05-02T13:23:22.991Z,11.62
2023-05-02T13:25:50.349Z,11.50
2023-05-02T13:28:17.666Z,11.24
2023-05-02T13:30:46.399Z,11.57
2023-05-02T13:33:13.756Z,11.69
2023-05-02T13:35:41.254Z,11.85
2023-05-02T13:38:08.671Z,11.31
2023-05-02T13:40:36.064Z,11.40
2023-05-02T13:43:03.311Z,11.04
2023-05-02T13:45:30.854Z,10.98
2023-05-02T13:47:59.555Z,11.22
2023-05-02T13:50:27.105Z,11.38
2023-05-02T13:52:54.393Z,11.52
2023-05-02T13:55:21.810Z,12.42
2023-05-02T13:57:49.036Z,12.42
2023-05-02T14:00:16.875Z,11.50
2023-05-02T14:02:44.158Z,11.41
2023-05-02T14:05:12.932Z,11.22
2023-05-02T14:07:40.268Z,11.17
2023-05-02T14:10:09.120Z,10.94
2023-05-02T14:12:36.459Z,10.86
2023-05-02T14:15:04.381Z,10.67
2023-05-02T14:17:31.846Z,10.51
2023-05-02T14:19:59.384Z,10.60
2023-05-02T14:22:28.201Z,10.48
2023-05-02T14:24:55.521Z,10.67
2023-05-02T14:27:24.268Z,11.27
2023-05-02T14:29:51.548Z,11.80
2023-05-02T14:32:18.888Z,12.14
2023-05-02T14:34:46.291Z,12.22
2023-05-02T14:37:13.443Z,12.99
2023-05-02T14:39:42.458Z,13.98
2023-05-02T14:42:09.779Z,13.96
2023-05-02T14:44:37.129Z,12.81
2023-05-02T14:47:04.590Z,12.10
2023-05-02T14:49:32.516Z,11.88
2023-05-02T14:52:00.003Z,11.68
2023-05-02T14:54:27.490Z,11.55
2023-05-02T14:56:56.667Z,11.88
2023-05-02T14:59:23.990Z,11.66
2023-05-02T15:01:51.587Z,11.43
2023-05-02T15:04:19.155Z,11.20
2023-05-02T15:06:46.767Z,10.98
2023-05-02T15:09:14.232Z,10.91
2023-05-02T15:11:41.543Z,10.77
2023-05-02T15:14:10.251Z,10.94
2023-05-02T15:16:37.758Z,11.08
2023-05-02T15:19:05.164Z,10.79
2023-05-02T15:21:32.425Z,11.02
2023-05-02T15:24:00.865Z,10.67
2023-05-02T15:26:28.336Z,10.73
2023-05-02T15:28:55.770Z,10.67
2023-05-02T15:31:24.860Z,10.74
2023-05-02T15:33:52.720Z,10.92
2023-05-02T15:36:20.704Z,10.82
2023-05-02T15:38:48.413Z,10.94
2023-05-02T15:41:15.861Z,10.97
2023-05-02T15:43:45.226Z,11.49
2023-05-02T15:46:12.584Z,11.73
2023-05-02T15:48:41.347Z,11.96
2023-05-02T15:51:08.716Z,13.41
2023-05-02T15:53:36.352Z,13.32
2023-05-02T15:56:03.668Z,12.65
2023-05-02T15:58:31.182Z,12.41
2023-05-02T16:00:58.427Z,12.12
2023-05-02T16:03:25.775Z,12.05
2023-05-02T16:05:55.040Z,11.70
2023-05-02T16:08:22.479Z,11.37
2023-05-02T16:10:49.816Z,11.37
2023-05-02T16:13:17.475Z,11.45
2023-05-02T16:15:45.746Z,11.58
2023-05-02T16:18:13.141Z,11.51
2023-05-02T16:20:40.723Z,11.67
2023-05-02T16:23:09.551Z,11.53
2023-05-02T16:25:36.847Z,11.67
2023-05-02T16:28:04.132Z,13.23
2023-05-02T16:30:31.440Z,12.81
2023-05-02T16:32:58.869Z,13.29
2023-05-02T16:35:26.097Z,15.94
2023-05-02T16:37:53.414Z,15.06
2023-05-02T16:40:22.246Z,13.22
2023-05-02T16:42:49.580Z,12.31
2023-05-02T16:45:17.021Z,12.97
2023-05-02T16:47:44.348Z,12.59
2023-05-02T16:50:11.699Z,12.14
2023-05-02T16:52:38.930Z,11.61
2023-05-02T16:55:06.367Z,11.00
2023-05-02T16:57:35.009Z,11.37
2023-05-02T17:00:02.500Z,11.39
2023-05-02T17:02:30.041Z,10.94
2023-05-02T17:04:58.404Z,10.81
2023-05-02T17:07:25.709Z,11.40
2023-05-02T17:09:53.143Z,11.51
2023-05-02T17:12:20.347Z,11.94
2023-05-02T17:14:49.205Z,12.65
2023-05-02T17:17:16.521Z,12.24
2023-05-02T17:19:43.720Z,11.78
2023-05-02T17:22:10.967Z,11.34
2023-05-02T17:24:38.289Z,11.03
2023-05-02T17:27:05.611Z,11.19
2023-05-02T17:29:32.845Z,11.16
2023-05-02T17:32:01.807Z,11.19
2023-05-02T17:34:29.057Z,11.12
2023-05-02T17:36:57.129Z,10.49
2023-05-02T17:39:24.484Z,10.36
2023-05-02T17:41:51.758Z,10.55
2023-05-02T17:44:18.961Z,10.08
2023-05-02T17:46:46.708Z,10.02
2023-05-02T17:49:15.385Z,9.82
2023-05-02T17:51:42.678Z,9.83
2023-05-02T17:54:09.993Z,9.54
2023-05-02T17:56:37.572Z,9.36
2023-05-02T17:59:04.866Z,9.28
2023-05-02T18:01:32.521Z,9.47
2023-05-02T18:03:59.994Z,9.78
2023-05-02T18:06:30.043Z,9.88
2023-05-02T18:08:57.488Z,9.63
2023-05-02T18:11:38.499Z,9.33
2023-05-02T18:14:06.009Z,9.30
2023-05-02T18:16:34.044Z,9.27
2023-05-02T18:19:01.710Z,9.27
2023-05-02T18:21:30.909Z,9.19
2023-05-02T18:23:58.289Z,9.15
2023-05-02T18:26:26.465Z,9.27
2023-05-02T18:28:54.078Z,9.13
2023-05-02T18:31:21.694Z,9.01
2023-05-02T18:33:49.338Z,8.90
2023-05-02T18:36:23.598Z,8.82
2023-05-02T18:38:52.640Z,8.67
2023-05-02T18:41:19.889Z,8.57
2023-05-02T18:43:47.254Z,8.56
2023-05-02T18:46:14.603Z,8.54
2023-05-02T18:48:41.957Z,8.54
2023-05-02T18:51:09.533Z,8.45
2023-05-02T18:53:37.177Z,8.37
2023-05-02T18:56:11.845Z,8.33
2023-05-02T18:58:40.575Z,8.25
2023-05-02T19:01:14.409Z,8.31
2023-05-02T19:03:42.147Z,8.27
2023-05-02T19:06:09.563Z,8.27
2023-05-02T19:08:38.006Z,8.27
2023-05-02T19:11:07.213Z,8.20
2023-05-02T19:13:34.609Z,8.09
2023-05-02T19:16:02.323Z,8.04
2023-05-02T19:18:29.971Z,8.07
2023-05-02T19:20:57.434Z,7.92
2023-05-02T19:23:25.149Z,7.85
2023-05-02T19:25:52.890Z,7.85
2023-05-02T19:28:21.593Z,7.77
2023-05-02T19:30:48.914Z,7.80
2023-05-02T19:33:18.908Z,7.73
2023-05-02T19:35:46.248Z,7.68
2023-05-02T19:38:13.720Z,7.82
2023-05-02T19:40:40.918Z,7.66
2023-05-02T19:43:08.265Z,7.72
2023-05-02T19:45:39.087Z,7.71
2023-05-02T19:48:06.936Z,7.71
2023-05-02T19:50:35.166Z,7.79
2023-05-02T19:53:03.556Z,7.88
2023-05-02T19:55:30.764Z,7.88
2023-05-02T19:58:00.098Z,7.95
2023-05-02T20:00:27.635Z,7.87
2023-05-02T20:02:57.324Z,7.87
2023-05-02T20:05:25.032Z,7.91
2023-05-02T20:07:52.383Z,7.94
2023-05-02T20:10:19.791Z,7.88
2023-05-02T20:12:47.354Z,7.90
2023-05-02T20:15:15.314Z,7.75
2023-05-02T20:17:42.829Z,7.79
2023-05-02T20:20:12.461Z,7.58
2023-05-02T20:22:40.040Z,7.59
2023-05-02T20:25:09.250Z,7.46
2023-05-02T20:27:36.486Z,7.38
2023-05-02T20:30:04.553Z,7.40
2023-05-02T20:32:32.257Z,7.27
2023-05-02T20:34:59.551Z,7.21
2023-05-02T20:37:28.567Z,7.19
2023-05-02T20:39:55.963Z,7.14
2023-05-02T20:42:25.223Z,7.08
2023-05-02T20:44:56.976Z,7.05
2023-05-02T20:47:25.878Z,7.02
2023-05-02T20:49:53.826Z,6.91
2023-05-02T20:52:21.304Z,6.96
2023-05-02T20:54:53.777Z,6.94
2023-05-02T20:57:21.312Z,6.93
2023-05-02T20:59:48.597Z,6.87
2023-05-02T21:02:15.894Z,6.79
2023-05-02T21:04:43.075Z,6.75
2023-05-02T21:07:11.648Z,6.69
2023-05-02T21:09:38.879Z,6.77
2023-05-02T21:12:07.562Z,6.79
2023-05-02T21:14:35.125Z,6.73
2023-05-02T21:17:02.399Z,6.72
2023-05-02T21:19:29.648Z,6.64
2023-05-02T21:21:56.909Z,6.77
2023-05-02T21:24:24.170Z,6.55
2023-05-02T21:26:51.552Z,6.52
2023-05-02T21:29:20.229Z,6.56
2023-05-02T21:31:47.856Z,6.54
2023-05-02T21:34:15.132Z,6.42
2023-05-02T21:36:42.436Z,6.34
2023-05-02T21:39:09.723Z,6.57
2023-05-02T21:41:37.062Z,6.42
2023-05-02T21:44:04.496Z,6.36
2023-05-02T21:46:33.266Z,6.37
2023-05-02T21:49:00.624Z,6.31
2023-05-02T21:51:28.026Z,6.19
2023-05-02T21:53:55.264Z,6.30
2023-05-02T21:56:22.658Z,6.44
2023-05-02T21:58:50.052Z,6.40
2023-05-02T22:01:17.656Z,6.45
2023-05-02T22:03:46.745Z,6.35
2023-05-02T22:06:14.081Z,6.35
2023-05-02T22:08:41.334Z,6.42
2023-05-02T22:11:08.602Z,6.46
2023-05-02T22:13:36.998Z,6.58
2023-05-02T22:16:05.408Z,6.60
2023-05-02T22:18:32.636Z,6.74
2023-05-02T22:21:01.341Z,6.69
2023-05-02T22:23:28.635Z,6.85
2023-05-02T22:25:57.170Z,6.78
2023-05-02T22:28:24.608Z,6.77
2023-05-02T22:30:51.852Z,6.79
2023-05-02T22:33:19.177Z,6.91
2023-05-02T22:35:46.502Z,6.98
2023-05-02T22:38:16.148Z,6.90
2023-05-02T22:40:43.514Z,7.01
2023-05-02T22:43:10.866Z,6.97
2023-05-02T22:45:38.354Z,6.98
2023-05-02T22:48:06.447Z,7.02
2023-05-02T22:50:34.816Z,6.95
2023-05-02T22:53:02.359Z,7.02
2023-05-02T22:55:31.002Z,7.02
2023-05-02T22:57:58.355Z,6.94
2023-05-02T23:00:25.715Z,6.86
2023-05-02T23:02:53.168Z,6.79
2023-05-02T23:05:20.702Z,6.71
2023-05-02T23:07:48.028Z,6.66
2023-05-02T23:10:15.477Z,6.59
2023-05-02T23:12:44.140Z,6.59
2023-05-02T23:15:11.737Z,6.56
2023-05-02T23:17:39.212Z,6.42
2023-05-02T23:20:08.324Z,6.35
2023-05-02T23:22:37.216Z,6.34
2023-05-02T23:25:06.209Z,6.29
2023-05-02T23:27:33.437Z,6.23
2023-05-02T23:30:02.649Z,6.19
2023-05-02T23:32:30.356Z,6.14
2023-05-02T23:34:57.721Z,6.08
2023-05-02T23:37:25.929Z,6.13
2023-05-02T23:39:53.273Z,6.14
2023-05-02T23:42:20.524Z,6.04
2023-05-02T23:44:47.820Z,6.01
2023-05-02T23:47:16.356Z,6.02
2023-05-02T23:49:43.608Z,6.02
2023-05-02T23:52:10.774Z,5.88
2023-05-02T23:54:38.047Z,5.82
2023-05-02T23:57:05.270Z,5.74
2023-05-02T23:59:32.520Z,5.72
